Triumph, Nebraska
Current Conditions -  °F | °C
As of 10:53 AM on Monday 22 Dec 2014 (Local Time) from KBBW Reporting Station
Scattered Clouds Scattered Clouds  
Wind Chill: 35°   Ceiling: Unl
Heat Index: 43°   Visibility: 10mi
Dew Point: 33°   Wind: 18mph
Humidity: 68%   Direction: 300°WNW
Pressure: 29.53"   Gusts: NA
Location:  41.1872°N, 100.067°W
Report Text: KBBW 221653Z AUTO 30016KT 10SM SCT048 06/01 A2953 RMK AO2 SLP009 T00610006
Loading
Personal Weather Stations






























Interactive Weather Map New forecast layout! Learn more

10-Day Weather Forecast

Advertisements
Track Severe Weather on mobile